Remote, Oregon
Current Conditions -  °F | °C
As of 2:53 PM on Friday 28 Nov 2014 (Local Time) from KRBG Reporting Station
Scattered Clouds Scattered Clouds  
Wind Chill: 56°   Ceiling: Unl
Heat Index: 56°   Visibility: 10mi
Dew Point: 52°   Wind: 0mph
Humidity: 87%   Direction: NA
Pressure: 29.66"   Gusts: NA
Location:  43.01°N, 123.89°W
Report Text: KRBG 282253Z AUTO 00000KT 10SM FEW036 SCT060 13/11 A2966 RMK AO2 RAB16E38 SLP045 P0001 T01330111 TSNO
Loading
Personal Weather Stations






























Interactive Weather Map New forecast layout! Learn more

10-Day Weather Forecast

Advertisements
Track Severe Weather on mobile